ASA1458 KSAN-KDFW
Flight info
| Callsign | ASA1458 |
|---|---|
| Flight time | 2h 20m |
| Altitude | 37000 |
| Route | ZZOOO4 GBN J50 SSO J4 INK GEEKY BOOVE7 |
| Aircraft | B738/M-SDE2E3FGHIRWXY/LB1 |
Departure
| Time | 2026-05-05 18:58 |
|---|---|
| Airport | San Diego International Airport (KSAN) |
Arrival
| Time | 2026-05-05 21:19 |
|---|---|
| Airport | Dallas Fort Worth International Airport (KDFW) |
| Time | Latitude | Longitude | Altitude | Speed | Heading |
|---|---|---|---|---|---|
| 2026-05-05 18:21 | 32.73418 | -117.20333 | 24 ft | 0 kts | 263° |
| 2026-05-05 18:46 | 32.73418 | -117.20332 | 22 ft | 1 kts | 263° |
| 2026-05-05 18:46 | 32.73419 | -117.20304 | 22 ft | 4 kts | 283° |
| 2026-05-05 18:46 | 32.73409 | -117.20280 | 23 ft | 4 kts | 338° |
| 2026-05-05 18:47 | 32.73397 | -117.20277 | 22 ft | 0 kts | 15° |
| 2026-05-05 18:50 | 32.73414 | -117.20272 | 25 ft | 7 kts | 15° |
| 2026-05-05 18:50 | 32.73462 | -117.20256 | 22 ft | 7 kts | 15° |
| 2026-05-05 18:51 | 32.73511 | -117.20239 | 22 ft | 8 kts | 17° |
| 2026-05-05 18:51 | 32.73548 | -117.20199 | 22 ft | 8 kts | 82° |
| 2026-05-05 18:51 | 32.73536 | -117.20138 | 22 ft | 8 kts | 108° |
| 2026-05-05 18:51 | 32.73521 | -117.20077 | 22 ft | 9 kts | 105° |
| 2026-05-05 18:52 | 32.73503 | -117.19999 | 23 ft | 10 kts | 106° |
| 2026-05-05 18:52 | 32.73482 | -117.19917 | 23 ft | 10 kts | 106° |
| 2026-05-05 18:52 | 32.73463 | -117.19838 | 22 ft | 10 kts | 105° |
| 2026-05-05 18:52 | 32.73445 | -117.19761 | 25 ft | 10 kts | 106° |
| 2026-05-05 18:53 | 32.73425 | -117.19677 | 22 ft | 12 kts | 106° |
| 2026-05-05 18:53 | 32.73402 | -117.19582 | 24 ft | 12 kts | 106° |
| 2026-05-05 18:53 | 32.73379 | -117.19490 | 23 ft | 11 kts | 106° |
| 2026-05-05 18:53 | 32.73357 | -117.19400 | 24 ft | 11 kts | 106° |
| 2026-05-05 18:54 | 32.73332 | -117.19297 | 21 ft | 16 kts | 105° |
| 2026-05-05 18:54 | 32.73300 | -117.19163 | 22 ft | 17 kts | 106° |
| 2026-05-05 18:54 | 32.73268 | -117.19031 | 22 ft | 16 kts | 106° |
| 2026-05-05 18:54 | 32.73237 | -117.18903 | 22 ft | 16 kts | 106° |
| 2026-05-05 18:55 | 32.73202 | -117.18755 | 33 ft | 21 kts | 106° |
| 2026-05-05 18:55 | 32.73160 | -117.18584 | 20 ft | 22 kts | 105° |
| 2026-05-05 18:55 | 32.73119 | -117.18415 | 20 ft | 21 kts | 104° |
| 2026-05-05 18:55 | 32.73079 | -117.18252 | 20 ft | 20 kts | 106° |
| 2026-05-05 18:56 | 32.73039 | -117.18091 | 21 ft | 20 kts | 106° |
| 2026-05-05 18:56 | 32.73003 | -117.17940 | 20 ft | 19 kts | 105° |
| 2026-05-05 18:56 | 32.72965 | -117.17792 | 21 ft | 18 kts | 109° |
| 2026-05-05 18:56 | 32.72947 | -117.17709 | 20 ft | 6 kts | 82° |
| 2026-05-05 18:57 | 32.72962 | -117.17650 | 22 ft | 9 kts | 72° |
| 2026-05-05 18:57 | 32.73006 | -117.17601 | 20 ft | 10 kts | 352° |
| 2026-05-05 18:57 | 32.73038 | -117.17667 | 20 ft | 10 kts | 278° |
| 2026-05-05 18:57 | 32.73074 | -117.17801 | 21 ft | 46 kts | 288° |
| 2026-05-05 18:58 | 32.73247 | -117.18514 | 23 ft | 130 kts | 286° |
| 2026-05-05 18:58 | 32.73559 | -117.19690 | 582 ft | 155 kts | 286° |
| 2026-05-05 18:58 | 32.73860 | -117.20922 | 1774 ft | 152 kts | 285° |
| 2026-05-05 18:58 | 32.74162 | -117.22217 | 2470 ft | 176 kts | 286° |
| 2026-05-05 18:59 | 32.74524 | -117.23747 | 2758 ft | 206 kts | 286° |
| 2026-05-05 18:59 | 32.74934 | -117.25470 | 3130 ft | 224 kts | 286° |
| 2026-05-05 18:59 | 32.75370 | -117.27279 | 3778 ft | 232 kts | 285° |
| 2026-05-05 18:59 | 32.75809 | -117.29117 | 4779 ft | 232 kts | 285° |
| 2026-05-05 19:00 | 32.76262 | -117.30980 | 5774 ft | 237 kts | 286° |
| 2026-05-05 19:00 | 32.76529 | -117.32914 | 6754 ft | 240 kts | 263° |
| 2026-05-05 19:00 | 32.75953 | -117.34766 | 7611 ft | 245 kts | 235° |
| 2026-05-05 19:00 | 32.74708 | -117.36109 | 8468 ft | 251 kts | 210° |
| 2026-05-05 19:01 | 32.73000 | -117.36657 | 9270 ft | 262 kts | 182° |
| 2026-05-05 19:01 | 32.71205 | -117.36161 | 10101 ft | 273 kts | 154° |
| 2026-05-05 19:01 | 32.69689 | -117.34763 | 10908 ft | 282 kts | 131° |
| 2026-05-05 19:01 | 32.68508 | -117.32901 | 11737 ft | 284 kts | 127° |
| 2026-05-05 19:02 | 32.67327 | -117.30999 | 12469 ft | 289 kts | 128° |
| 2026-05-05 19:02 | 32.66104 | -117.29091 | 13222 ft | 292 kts | 129° |
| 2026-05-05 19:02 | 32.64852 | -117.27176 | 14008 ft | 295 kts | 129° |
| 2026-05-05 19:02 | 32.63605 | -117.25225 | 14695 ft | 299 kts | 122° |
| 2026-05-05 19:03 | 32.62913 | -117.22868 | 15198 ft | 314 kts | 98° |
| 2026-05-05 19:03 | 32.62674 | -117.20197 | 15354 ft | 338 kts | 95° |
| 2026-05-05 19:03 | 32.62458 | -117.17335 | 15629 ft | 357 kts | 95° |
| 2026-05-05 19:03 | 32.62212 | -117.14367 | 16188 ft | 365 kts | 96° |
| 2026-05-05 19:04 | 32.61989 | -117.11357 | 16915 ft | 368 kts | 90° |
| 2026-05-05 19:04 | 32.62448 | -117.08383 | 17621 ft | 369 kts | 68° |
| 2026-05-05 19:04 | 32.63396 | -117.05545 | 18375 ft | 372 kts | 66° |
| 2026-05-05 19:04 | 32.64377 | -117.02688 | 18951 ft | 376 kts | 66° |
| 2026-05-05 19:05 | 32.65349 | -116.99788 | 19573 ft | 380 kts | 67° |
| 2026-05-05 19:05 | 32.66306 | -116.96853 | 20214 ft | 383 kts | 69° |
| 2026-05-05 19:05 | 32.66816 | -116.93742 | 20790 ft | 388 kts | 88° |
| 2026-05-05 19:05 | 32.66853 | -116.90535 | 21447 ft | 390 kts | 89° |
| 2026-05-05 19:06 | 32.66877 | -116.87302 | 22067 ft | 394 kts | 89° |
| 2026-05-05 19:06 | 32.66920 | -116.84038 | 22683 ft | 397 kts | 89° |
| 2026-05-05 19:06 | 32.66985 | -116.80748 | 23287 ft | 401 kts | 89° |
| 2026-05-05 19:06 | 32.67061 | -116.77429 | 23828 ft | 404 kts | 89° |
| 2026-05-05 19:07 | 32.67134 | -116.74071 | 24247 ft | 409 kts | 90° |
| 2026-05-05 19:07 | 32.67133 | -116.71821 | 24493 ft | 413 kts | 91° |
| 2026-05-05 19:07 | 32.67047 | -116.67225 | 25006 ft | 420 kts | 93° |
| 2026-05-05 19:07 | 32.66965 | -116.63781 | 25406 ft | 425 kts | 93° |
| 2026-05-05 19:08 | 32.66888 | -116.60248 | 25764 ft | 431 kts | 93° |
| 2026-05-05 19:08 | 32.66819 | -116.56673 | 26120 ft | 436 kts | 93° |
| 2026-05-05 19:08 | 32.66753 | -116.53051 | 26385 ft | 444 kts | 94° |
| 2026-05-05 19:08 | 32.66692 | -116.49354 | 26670 ft | 450 kts | 94° |
| 2026-05-05 19:09 | 32.66632 | -116.45618 | 27105 ft | 454 kts | 94° |
| 2026-05-05 19:09 | 32.66583 | -116.41864 | 27491 ft | 459 kts | 92° |
| 2026-05-05 19:09 | 32.66774 | -116.38049 | 27820 ft | 466 kts | 87° |
| 2026-05-05 19:09 | 32.67146 | -116.34208 | 28166 ft | 471 kts | 85° |
| 2026-05-05 19:10 | 32.67573 | -116.30332 | 28512 ft | 476 kts | 85° |
| 2026-05-05 19:10 | 32.67996 | -116.26418 | 28845 ft | 480 kts | 86° |
| 2026-05-05 19:10 | 32.68393 | -116.22461 | 29132 ft | 485 kts | 87° |
| 2026-05-05 19:10 | 32.68767 | -116.18461 | 29450 ft | 490 kts | 87° |
| 2026-05-05 19:11 | 32.69127 | -116.14424 | 29795 ft | 494 kts | 88° |
| 2026-05-05 19:11 | 32.69486 | -116.10349 | 30086 ft | 499 kts | 88° |
| 2026-05-05 19:11 | 32.69848 | -116.06244 | 30365 ft | 502 kts | 88° |
| 2026-05-05 19:11 | 32.70213 | -116.02117 | 30651 ft | 504 kts | 88° |
| 2026-05-05 19:12 | 32.70592 | -115.97960 | 30910 ft | 507 kts | 87° |
| 2026-05-05 19:12 | 32.70979 | -115.93794 | 31158 ft | 510 kts | 88° |
| 2026-05-05 19:12 | 32.71371 | -115.89585 | 31401 ft | 514 kts | 88° |
| 2026-05-05 19:12 | 32.71630 | -115.86790 | 31555 ft | 516 kts | 88° |
| 2026-05-05 19:13 | 32.72155 | -115.81105 | 31918 ft | 519 kts | 88° |
| 2026-05-05 19:13 | 32.72414 | -115.78284 | 32102 ft | 520 kts | 88° |
| 2026-05-05 19:13 | 32.72804 | -115.74005 | 32378 ft | 522 kts | 88° |
| 2026-05-05 19:13 | 32.73194 | -115.69719 | 32658 ft | 522 kts | 88° |
| 2026-05-05 19:14 | 32.73579 | -115.65404 | 32760 ft | 529 kts | 89° |
| 2026-05-05 19:14 | 32.73973 | -115.61029 | 32795 ft | 536 kts | 89° |
| 2026-05-05 19:14 | 32.74371 | -115.56606 | 32970 ft | 540 kts | 89° |
| 2026-05-05 19:14 | 32.74770 | -115.52174 | 33340 ft | 539 kts | 89° |
| 2026-05-05 19:15 | 32.75093 | -115.47757 | 33765 ft | 534 kts | 92° |
| 2026-05-05 19:15 | 32.75253 | -115.43362 | 34105 ft | 532 kts | 94° |
| 2026-05-05 19:15 | 32.75326 | -115.38978 | 34381 ft | 530 kts | 95° |
| 2026-05-05 19:15 | 32.75372 | -115.34604 | 34700 ft | 529 kts | 95° |
| 2026-05-05 19:16 | 32.75423 | -115.30247 | 35036 ft | 528 kts | 95° |
| 2026-05-05 19:16 | 32.75489 | -115.25881 | 35228 ft | 530 kts | 95° |
| 2026-05-05 19:16 | 32.75572 | -115.21493 | 35473 ft | 530 kts | 95° |
| 2026-05-05 19:16 | 32.75667 | -115.17132 | 35835 ft | 528 kts | 94° |
| 2026-05-05 19:17 | 32.75767 | -115.12784 | 36236 ft | 524 kts | 94° |
| 2026-05-05 19:17 | 32.75866 | -115.08474 | 36589 ft | 521 kts | 94° |
| 2026-05-05 19:17 | 32.75961 | -115.04181 | 36883 ft | 519 kts | 94° |
| 2026-05-05 19:17 | 32.76052 | -114.99887 | 36947 ft | 522 kts | 94° |
| 2026-05-05 19:18 | 32.76225 | -114.91201 | 36961 ft | 528 kts | 94° |
| 2026-05-05 19:18 | 32.76399 | -114.82526 | 36961 ft | 523 kts | 95° |
| 2026-05-05 19:19 | 32.76565 | -114.73911 | 36965 ft | 520 kts | 95° |
| 2026-05-05 19:19 | 32.76722 | -114.65337 | 36964 ft | 518 kts | 95° |
| 2026-05-05 19:20 | 32.76869 | -114.56786 | 36981 ft | 517 kts | 95° |
| 2026-05-05 19:20 | 32.76987 | -114.48294 | 36962 ft | 518 kts | 95° |
| 2026-05-05 19:21 | 32.77098 | -114.39724 | 36964 ft | 519 kts | 95° |
| 2026-05-05 19:21 | 32.77152 | -114.35434 | 36854 ft | 520 kts | 96° |
| 2026-05-05 19:21 | 32.77206 | -114.31142 | 36885 ft | 520 kts | 96° |
| 2026-05-05 19:22 | 32.77296 | -114.23769 | 36924 ft | 521 kts | 96° |
| 2026-05-05 19:22 | 32.77396 | -114.15143 | 36931 ft | 524 kts | 96° |
| 2026-05-05 19:23 | 32.77491 | -114.06467 | 36936 ft | 526 kts | 96° |
| 2026-05-05 19:23 | 32.77572 | -113.98505 | 36936 ft | 529 kts | 96° |
| 2026-05-05 19:24 | 32.78425 | -113.89605 | 36948 ft | 540 kts | 84° |
| 2026-05-05 19:24 | 32.79896 | -113.80829 | 36939 ft | 542 kts | 84° |
| 2026-05-05 19:25 | 32.81220 | -113.72008 | 36920 ft | 542 kts | 85° |
| 2026-05-05 19:25 | 32.82453 | -113.63171 | 36934 ft | 542 kts | 85° |
| 2026-05-05 19:26 | 32.83695 | -113.54332 | 36924 ft | 542 kts | 85° |
| 2026-05-05 19:26 | 32.84937 | -113.45490 | 36911 ft | 542 kts | 85° |
| 2026-05-05 19:27 | 32.86171 | -113.36654 | 36919 ft | 542 kts | 86° |
| 2026-05-05 19:27 | 32.87397 | -113.27818 | 36929 ft | 541 kts | 86° |
| 2026-05-05 19:28 | 32.88523 | -113.19658 | 36919 ft | 540 kts | 86° |
| 2026-05-05 19:28 | 32.89732 | -113.10847 | 36922 ft | 539 kts | 86° |
| 2026-05-05 19:29 | 32.90933 | -113.02055 | 36941 ft | 538 kts | 86° |
| 2026-05-05 19:29 | 32.92125 | -112.93275 | 36948 ft | 537 kts | 86° |
| 2026-05-05 19:30 | 32.93180 | -112.85467 | 36965 ft | 536 kts | 86° |
| 2026-05-05 19:30 | 32.94356 | -112.76711 | 36958 ft | 536 kts | 87° |
| 2026-05-05 19:31 | 32.95503 | -112.67949 | 36969 ft | 533 kts | 91° |
| 2026-05-05 19:31 | 32.95489 | -112.63679 | 36978 ft | 516 kts | 105° |
| 2026-05-05 19:31 | 32.95091 | -112.59447 | 36988 ft | 514 kts | 107° |
| 2026-05-05 19:32 | 32.94198 | -112.50996 | 36963 ft | 516 kts | 106° |
| 2026-05-05 19:32 | 32.93356 | -112.42434 | 36908 ft | 519 kts | 106° |
| 2026-05-05 19:33 | 32.92703 | -112.35304 | 36920 ft | 520 kts | 105° |
| 2026-05-05 19:33 | 32.91964 | -112.27099 | 36910 ft | 521 kts | 106° |
| 2026-05-05 19:34 | 32.91180 | -112.18511 | 36911 ft | 523 kts | 106° |
| 2026-05-05 19:35 | 32.90372 | -112.09804 | 36898 ft | 524 kts | 106° |
| 2026-05-05 19:35 | 32.89566 | -112.01173 | 36909 ft | 525 kts | 106° |
| 2026-05-05 19:36 | 32.88752 | -111.92522 | 36913 ft | 527 kts | 107° |
| 2026-05-05 19:36 | 32.87280 | -111.84148 | 36916 ft | 512 kts | 117° |
| 2026-05-05 19:37 | 32.85342 | -111.75994 | 36886 ft | 513 kts | 117° |
| 2026-05-05 19:37 | 32.83483 | -111.67784 | 36901 ft | 515 kts | 116° |
| 2026-05-05 19:38 | 32.81665 | -111.59561 | 36901 ft | 514 kts | 116° |
| 2026-05-05 19:38 | 32.79818 | -111.51356 | 36910 ft | 513 kts | 117° |
| 2026-05-05 19:39 | 32.77962 | -111.43168 | 36914 ft | 513 kts | 117° |
| 2026-05-05 19:39 | 32.76105 | -111.34989 | 36931 ft | 513 kts | 117° |
| 2026-05-05 19:40 | 32.74247 | -111.26814 | 36942 ft | 513 kts | 117° |
| 2026-05-05 19:40 | 32.72383 | -111.18639 | 36937 ft | 513 kts | 117° |
| 2026-05-05 19:41 | 32.70511 | -111.10458 | 36915 ft | 513 kts | 117° |
| 2026-05-05 19:41 | 32.68635 | -111.02285 | 36917 ft | 513 kts | 117° |
| 2026-05-05 19:42 | 32.66757 | -110.94129 | 36861 ft | 513 kts | 117° |
| 2026-05-05 19:42 | 32.64875 | -110.85980 | 36895 ft | 511 kts | 117° |
| 2026-05-05 19:43 | 32.62991 | -110.77853 | 36896 ft | 511 kts | 117° |
| 2026-05-05 19:43 | 32.61104 | -110.69735 | 36891 ft | 510 kts | 117° |
| 2026-05-05 19:44 | 32.59226 | -110.61681 | 36901 ft | 510 kts | 117° |
| 2026-05-05 19:44 | 32.57555 | -110.54528 | 36897 ft | 510 kts | 117° |
| 2026-05-05 19:45 | 32.55662 | -110.46434 | 36866 ft | 510 kts | 117° |
| 2026-05-05 19:45 | 32.53765 | -110.38334 | 36889 ft | 510 kts | 118° |
| 2026-05-05 19:46 | 32.51851 | -110.30226 | 36820 ft | 513 kts | 118° |
| 2026-05-05 19:46 | 32.49999 | -110.22353 | 36865 ft | 518 kts | 118° |
| 2026-05-05 19:47 | 32.48088 | -110.14229 | 36877 ft | 506 kts | 118° |
| 2026-05-05 19:47 | 32.46193 | -110.06233 | 36877 ft | 504 kts | 118° |
| 2026-05-05 19:48 | 32.44282 | -109.98233 | 36876 ft | 505 kts | 118° |
| 2026-05-05 19:48 | 32.42363 | -109.90211 | 36872 ft | 507 kts | 118° |
| 2026-05-05 19:49 | 32.40438 | -109.82177 | 36870 ft | 508 kts | 118° |
| 2026-05-05 19:49 | 32.38516 | -109.74171 | 36855 ft | 510 kts | 118° |
| 2026-05-05 19:50 | 32.36607 | -109.66243 | 36818 ft | 510 kts | 118° |
| 2026-05-05 19:50 | 32.34660 | -109.58182 | 36852 ft | 511 kts | 118° |
| 2026-05-05 19:51 | 32.32700 | -109.50100 | 36868 ft | 512 kts | 118° |
| 2026-05-05 19:51 | 32.30734 | -109.42011 | 36845 ft | 512 kts | 118° |
| 2026-05-05 19:52 | 32.28764 | -109.33923 | 36848 ft | 512 kts | 118° |
| 2026-05-05 19:52 | 32.26835 | -109.25800 | 36851 ft | 518 kts | 114° |
| 2026-05-05 19:53 | 32.25839 | -109.17223 | 36856 ft | 531 kts | 106° |
| 2026-05-05 19:53 | 32.25127 | -109.08526 | 36838 ft | 532 kts | 106° |
| 2026-05-05 19:54 | 32.24382 | -108.99855 | 36854 ft | 530 kts | 107° |
| 2026-05-05 19:54 | 32.23566 | -108.91204 | 36829 ft | 529 kts | 107° |
| 2026-05-05 19:55 | 32.22726 | -108.82586 | 36855 ft | 527 kts | 107° |
| 2026-05-05 19:55 | 32.21879 | -108.73993 | 36993 ft | 527 kts | 108° |
| 2026-05-05 19:56 | 32.21029 | -108.65398 | 36997 ft | 527 kts | 108° |
| 2026-05-05 19:56 | 32.20177 | -108.56806 | 36973 ft | 527 kts | 108° |
| 2026-05-05 19:57 | 32.19318 | -108.48207 | 36943 ft | 528 kts | 108° |
| 2026-05-05 19:57 | 32.18463 | -108.39708 | 36874 ft | 529 kts | 108° |
| 2026-05-05 19:58 | 32.17609 | -108.31261 | 36857 ft | 529 kts | 108° |
| 2026-05-05 19:58 | 32.16728 | -108.22625 | 36864 ft | 531 kts | 108° |
| 2026-05-05 19:59 | 32.15839 | -108.13965 | 36854 ft | 532 kts | 108° |
| 2026-05-05 19:59 | 32.14945 | -108.05293 | 36858 ft | 532 kts | 108° |
| 2026-05-05 20:00 | 32.14196 | -107.98083 | 36850 ft | 533 kts | 108° |
| 2026-05-05 20:00 | 32.13289 | -107.89414 | 36852 ft | 533 kts | 108° |
| 2026-05-05 20:01 | 32.12376 | -107.80744 | 36999 ft | 532 kts | 108° |
| 2026-05-05 20:01 | 32.11458 | -107.72082 | 36993 ft | 532 kts | 108° |
| 2026-05-05 20:02 | 32.10537 | -107.63439 | 36971 ft | 531 kts | 108° |
| 2026-05-05 20:02 | 32.09947 | -107.57955 | 36924 ft | 531 kts | 108° |
| 2026-05-05 20:03 | 32.09132 | -107.50374 | 36903 ft | 529 kts | 108° |
| 2026-05-05 20:03 | 32.08201 | -107.41784 | 36854 ft | 527 kts | 108° |
| 2026-05-05 20:04 | 32.07266 | -107.33217 | 36810 ft | 526 kts | 108° |
| 2026-05-05 20:04 | 32.06331 | -107.24717 | 36816 ft | 526 kts | 108° |
| 2026-05-05 20:05 | 32.05384 | -107.16165 | 36853 ft | 527 kts | 108° |
| 2026-05-05 20:05 | 32.04432 | -107.07606 | 36878 ft | 527 kts | 108° |
| 2026-05-05 20:06 | 32.03472 | -106.99039 | 36888 ft | 528 kts | 108° |
| 2026-05-05 20:06 | 32.02505 | -106.90453 | 36894 ft | 529 kts | 108° |
| 2026-05-05 20:07 | 32.01531 | -106.81855 | 36928 ft | 530 kts | 108° |
| 2026-05-05 20:07 | 32.00548 | -106.73232 | 36986 ft | 532 kts | 108° |
| 2026-05-05 20:08 | 31.99554 | -106.64579 | 36993 ft | 534 kts | 108° |
| 2026-05-05 20:08 | 31.98552 | -106.55896 | 36972 ft | 537 kts | 108° |
| 2026-05-05 20:09 | 31.97537 | -106.47158 | 36944 ft | 540 kts | 108° |
| 2026-05-05 20:09 | 31.96577 | -106.38925 | 36983 ft | 541 kts | 108° |
| 2026-05-05 20:10 | 31.95561 | -106.30257 | 36958 ft | 541 kts | 108° |
| 2026-05-05 20:10 | 31.94908 | -106.21366 | 36942 ft | 550 kts | 99° |
| 2026-05-05 20:11 | 31.94836 | -106.12347 | 36895 ft | 551 kts | 98° |
| 2026-05-05 20:11 | 31.94797 | -106.03473 | 36853 ft | 549 kts | 98° |
| 2026-05-05 20:12 | 31.94671 | -105.94503 | 36778 ft | 546 kts | 99° |
| 2026-05-05 20:12 | 31.94503 | -105.85601 | 36822 ft | 543 kts | 99° |
| 2026-05-05 20:13 | 31.94330 | -105.76997 | 36801 ft | 541 kts | 99° |
| 2026-05-05 20:13 | 31.94154 | -105.68150 | 36796 ft | 540 kts | 99° |
| 2026-05-05 20:14 | 31.93974 | -105.59317 | 36785 ft | 540 kts | 99° |
| 2026-05-05 20:14 | 31.93788 | -105.50490 | 36794 ft | 539 kts | 99° |
| 2026-05-05 20:15 | 31.93596 | -105.41667 | 36743 ft | 539 kts | 100° |
| 2026-05-05 20:15 | 31.93400 | -105.32857 | 36778 ft | 538 kts | 99° |
| 2026-05-05 20:16 | 31.93216 | -105.24302 | 36773 ft | 539 kts | 99° |
| 2026-05-05 20:16 | 31.93032 | -105.15475 | 36792 ft | 540 kts | 99° |
| 2026-05-05 20:17 | 31.92845 | -105.06780 | 36800 ft | 541 kts | 99° |
| 2026-05-05 20:17 | 31.92781 | -105.03852 | 36799 ft | 541 kts | 99° |
| 2026-05-05 20:18 | 31.92731 | -105.01648 | 36805 ft | 541 kts | 99° |
| 2026-05-05 20:18 | 31.92528 | -104.92777 | 36795 ft | 542 kts | 99° |
| 2026-05-05 20:19 | 31.92317 | -104.83897 | 36807 ft | 545 kts | 98° |
| 2026-05-05 20:19 | 31.92135 | -104.76416 | 36777 ft | 544 kts | 99° |
| 2026-05-05 20:20 | 31.91920 | -104.67583 | 36789 ft | 537 kts | 98° |
| 2026-05-05 20:20 | 31.91696 | -104.58799 | 36798 ft | 536 kts | 99° |
| 2026-05-05 20:21 | 31.91464 | -104.50030 | 36798 ft | 536 kts | 99° |
| 2026-05-05 20:21 | 31.91227 | -104.41265 | 36804 ft | 536 kts | 99° |
| 2026-05-05 20:22 | 31.90983 | -104.32496 | 36804 ft | 537 kts | 99° |
| 2026-05-05 20:22 | 31.90749 | -104.24238 | 36801 ft | 537 kts | 99° |
| 2026-05-05 20:23 | 31.90493 | -104.15426 | 36804 ft | 541 kts | 99° |
| 2026-05-05 20:23 | 31.90228 | -104.06560 | 36806 ft | 543 kts | 99° |
| 2026-05-05 20:24 | 31.89958 | -103.97658 | 36798 ft | 546 kts | 99° |
| 2026-05-05 20:24 | 31.89681 | -103.88720 | 36797 ft | 548 kts | 99° |
| 2026-05-05 20:25 | 31.89396 | -103.79747 | 36792 ft | 550 kts | 99° |
| 2026-05-05 20:25 | 31.89104 | -103.70744 | 36789 ft | 551 kts | 99° |
| 2026-05-05 20:26 | 31.88805 | -103.61713 | 36789 ft | 552 kts | 99° |
| 2026-05-05 20:26 | 31.88500 | -103.52701 | 36780 ft | 551 kts | 99° |
| 2026-05-05 20:27 | 31.88190 | -103.43713 | 36782 ft | 549 kts | 99° |
| 2026-05-05 20:27 | 31.87876 | -103.34812 | 36788 ft | 547 kts | 99° |
| 2026-05-05 20:28 | 31.87571 | -103.25889 | 36791 ft | 547 kts | 97° |
| 2026-05-05 20:28 | 31.87748 | -103.21402 | 36778 ft | 553 kts | 86° |
| 2026-05-05 20:28 | 31.88306 | -103.16927 | 36808 ft | 553 kts | 84° |
| 2026-05-05 20:29 | 31.89589 | -103.08006 | 36787 ft | 552 kts | 83° |
| 2026-05-05 20:29 | 31.90861 | -102.99099 | 36798 ft | 552 kts | 84° |
| 2026-05-05 20:30 | 31.92062 | -102.90184 | 36804 ft | 551 kts | 85° |
| 2026-05-05 20:30 | 31.93226 | -102.81257 | 36806 ft | 552 kts | 85° |
| 2026-05-05 20:31 | 31.94384 | -102.72312 | 36829 ft | 552 kts | 84° |
| 2026-05-05 20:31 | 31.95541 | -102.63370 | 36865 ft | 553 kts | 84° |
| 2026-05-05 20:32 | 31.96696 | -102.54418 | 36897 ft | 553 kts | 84° |
| 2026-05-05 20:32 | 31.97846 | -102.45449 | 36915 ft | 554 kts | 84° |
| 2026-05-05 20:33 | 31.98990 | -102.36477 | 36916 ft | 554 kts | 84° |
| 2026-05-05 20:33 | 32.00121 | -102.27551 | 36900 ft | 555 kts | 84° |
| 2026-05-05 20:34 | 32.01253 | -102.18560 | 36908 ft | 555 kts | 84° |
| 2026-05-05 20:34 | 32.02380 | -102.09562 | 36913 ft | 555 kts | 84° |
| 2026-05-05 20:35 | 32.03502 | -102.00556 | 36902 ft | 555 kts | 84° |
| 2026-05-05 20:35 | 32.04616 | -101.91551 | 36868 ft | 555 kts | 84° |
| 2026-05-05 20:36 | 32.05723 | -101.82553 | 36814 ft | 555 kts | 84° |
| 2026-05-05 20:36 | 32.06825 | -101.73547 | 36806 ft | 554 kts | 85° |
| 2026-05-05 20:37 | 32.07917 | -101.64565 | 36818 ft | 553 kts | 85° |
| 2026-05-05 20:37 | 32.09002 | -101.55589 | 36866 ft | 552 kts | 84° |
| 2026-05-05 20:38 | 32.10077 | -101.46636 | 36868 ft | 552 kts | 84° |
| 2026-05-05 20:38 | 32.11146 | -101.37680 | 36841 ft | 551 kts | 85° |
| 2026-05-05 20:39 | 32.12207 | -101.28729 | 36807 ft | 551 kts | 85° |
| 2026-05-05 20:39 | 32.13262 | -101.19789 | 36722 ft | 550 kts | 85° |
| 2026-05-05 20:40 | 32.14310 | -101.10842 | 36723 ft | 550 kts | 85° |
| 2026-05-05 20:40 | 32.15351 | -101.01894 | 36723 ft | 551 kts | 85° |
| 2026-05-05 20:41 | 32.16388 | -100.92933 | 36717 ft | 551 kts | 85° |
| 2026-05-05 20:41 | 32.17419 | -100.83971 | 36717 ft | 551 kts | 85° |
| 2026-05-05 20:42 | 32.18444 | -100.74999 | 36717 ft | 552 kts | 85° |
| 2026-05-05 20:42 | 32.19464 | -100.66009 | 36712 ft | 553 kts | 85° |
| 2026-05-05 20:43 | 32.20479 | -100.57007 | 36696 ft | 554 kts | 85° |
| 2026-05-05 20:43 | 32.21489 | -100.47998 | 36712 ft | 553 kts | 85° |
| 2026-05-05 20:44 | 32.22492 | -100.38984 | 36708 ft | 554 kts | 85° |
| 2026-05-05 20:44 | 32.23489 | -100.29972 | 36719 ft | 553 kts | 85° |
| 2026-05-05 20:45 | 32.24971 | -100.16461 | 36701 ft | 552 kts | 85° |
| 2026-05-05 20:45 | 32.25949 | -100.07468 | 36699 ft | 552 kts | 85° |
| 2026-05-05 20:46 | 32.26919 | -99.98488 | 36704 ft | 550 kts | 85° |
| 2026-05-05 20:46 | 32.27881 | -99.89525 | 36711 ft | 549 kts | 85° |
| 2026-05-05 20:47 | 32.28570 | -99.80620 | 36700 ft | 547 kts | 89° |
| 2026-05-05 20:47 | 32.28963 | -99.71666 | 36708 ft | 545 kts | 90° |
| 2026-05-05 20:48 | 32.29357 | -99.62731 | 36715 ft | 544 kts | 89° |
| 2026-05-05 20:48 | 32.29800 | -99.53797 | 36271 ft | 547 kts | 89° |
| 2026-05-05 20:49 | 32.30031 | -99.49319 | 35795 ft | 545 kts | 89° |
| 2026-05-05 20:49 | 32.30187 | -99.46296 | 35490 ft | 544 kts | 89° |
| 2026-05-05 20:49 | 32.30415 | -99.41849 | 35134 ft | 540 kts | 89° |
| 2026-05-05 20:49 | 32.30635 | -99.37487 | 34750 ft | 538 kts | 89° |
| 2026-05-05 20:50 | 32.30855 | -99.33087 | 34365 ft | 535 kts | 89° |
| 2026-05-05 20:50 | 32.31070 | -99.28705 | 33961 ft | 533 kts | 89° |
| 2026-05-05 20:50 | 32.31283 | -99.24343 | 33542 ft | 531 kts | 89° |
| 2026-05-05 20:50 | 32.31494 | -99.19992 | 33122 ft | 529 kts | 89° |
| 2026-05-05 20:51 | 32.31702 | -99.15664 | 32720 ft | 526 kts | 89° |
| 2026-05-05 20:51 | 32.31908 | -99.11352 | 32328 ft | 523 kts | 89° |
| 2026-05-05 20:51 | 32.32111 | -99.07079 | 31989 ft | 519 kts | 89° |
| 2026-05-05 20:51 | 32.32312 | -99.02835 | 31576 ft | 517 kts | 89° |
| 2026-05-05 20:52 | 32.32510 | -98.98602 | 31193 ft | 514 kts | 89° |
| 2026-05-05 20:52 | 32.32707 | -98.94397 | 30886 ft | 509 kts | 89° |
| 2026-05-05 20:52 | 32.32904 | -98.90233 | 30578 ft | 505 kts | 90° |
| 2026-05-05 20:52 | 32.33099 | -98.86096 | 30219 ft | 503 kts | 90° |
| 2026-05-05 20:53 | 32.33291 | -98.81980 | 29854 ft | 501 kts | 90° |
| 2026-05-05 20:53 | 32.33481 | -98.77878 | 29409 ft | 499 kts | 90° |
| 2026-05-05 20:53 | 32.33669 | -98.73796 | 28999 ft | 496 kts | 90° |
| 2026-05-05 20:53 | 32.33854 | -98.69739 | 28586 ft | 492 kts | 89° |
| 2026-05-05 20:54 | 32.34036 | -98.65727 | 28192 ft | 489 kts | 89° |
| 2026-05-05 20:54 | 32.34217 | -98.61727 | 27801 ft | 486 kts | 89° |
| 2026-05-05 20:54 | 32.34395 | -98.57748 | 27477 ft | 482 kts | 89° |
| 2026-05-05 20:54 | 32.34570 | -98.53805 | 27120 ft | 479 kts | 89° |
| 2026-05-05 20:55 | 32.34743 | -98.49882 | 26730 ft | 476 kts | 89° |
| 2026-05-05 20:55 | 32.34913 | -98.45988 | 26339 ft | 473 kts | 89° |
| 2026-05-05 20:55 | 32.35081 | -98.42106 | 25944 ft | 471 kts | 89° |
| 2026-05-05 20:55 | 32.35249 | -98.38240 | 25539 ft | 470 kts | 89° |
| 2026-05-05 20:56 | 32.35412 | -98.34440 | 25156 ft | 468 kts | 89° |
| 2026-05-05 20:56 | 32.35577 | -98.30551 | 24752 ft | 467 kts | 89° |
| 2026-05-05 20:56 | 32.35735 | -98.26787 | 24408 ft | 464 kts | 89° |
| 2026-05-05 20:56 | 32.35891 | -98.22986 | 24041 ft | 462 kts | 89° |
| 2026-05-05 20:57 | 32.36045 | -98.19196 | 23653 ft | 461 kts | 89° |
| 2026-05-05 20:57 | 32.36198 | -98.15408 | 23255 ft | 460 kts | 89° |
| 2026-05-05 20:57 | 32.36349 | -98.11645 | 22808 ft | 458 kts | 89° |
| 2026-05-05 20:57 | 32.36499 | -98.07892 | 22419 ft | 454 kts | 89° |
| 2026-05-05 20:58 | 32.36647 | -98.04172 | 22029 ft | 451 kts | 89° |
| 2026-05-05 20:58 | 32.36793 | -98.00478 | 21648 ft | 448 kts | 89° |
| 2026-05-05 20:58 | 32.36936 | -97.96811 | 21267 ft | 445 kts | 89° |
| 2026-05-05 20:58 | 32.37078 | -97.93166 | 20892 ft | 442 kts | 89° |
| 2026-05-05 20:59 | 32.37218 | -97.89544 | 20521 ft | 439 kts | 90° |
| 2026-05-05 20:59 | 32.37359 | -97.85958 | 20141 ft | 434 kts | 90° |
| 2026-05-05 20:59 | 32.37499 | -97.82422 | 19765 ft | 425 kts | 90° |
| 2026-05-05 20:59 | 32.37634 | -97.78974 | 19399 ft | 415 kts | 90° |
| 2026-05-05 21:00 | 32.37765 | -97.75610 | 19036 ft | 405 kts | 90° |
| 2026-05-05 21:00 | 32.37891 | -97.72319 | 18674 ft | 396 kts | 90° |
| 2026-05-05 21:00 | 32.38014 | -97.69096 | 18336 ft | 389 kts | 91° |
| 2026-05-05 21:00 | 32.38139 | -97.65908 | 17993 ft | 389 kts | 89° |
| 2026-05-05 21:01 | 32.38759 | -97.62797 | 17600 ft | 391 kts | 65° |
| 2026-05-05 21:01 | 32.40216 | -97.60125 | 17286 ft | 384 kts | 43° |
| 2026-05-05 21:01 | 32.42113 | -97.57937 | 17030 ft | 377 kts | 39° |
| 2026-05-05 21:01 | 32.44018 | -97.55845 | 16813 ft | 371 kts | 38° |
| 2026-05-05 21:02 | 32.45873 | -97.53783 | 16513 ft | 370 kts | 39° |
| 2026-05-05 21:02 | 32.47730 | -97.51688 | 16213 ft | 368 kts | 39° |
| 2026-05-05 21:02 | 32.49572 | -97.49593 | 15907 ft | 366 kts | 40° |
| 2026-05-05 21:02 | 32.51404 | -97.47501 | 15625 ft | 365 kts | 40° |
| 2026-05-05 21:03 | 32.53226 | -97.45417 | 15332 ft | 363 kts | 40° |
| 2026-05-05 21:03 | 32.55039 | -97.43343 | 15032 ft | 362 kts | 40° |
| 2026-05-05 21:03 | 32.56849 | -97.41272 | 14734 ft | 360 kts | 40° |
| 2026-05-05 21:03 | 32.58647 | -97.39213 | 14432 ft | 359 kts | 40° |
| 2026-05-05 21:04 | 32.60439 | -97.37158 | 14141 ft | 358 kts | 40° |
| 2026-05-05 21:04 | 32.62224 | -97.35113 | 13833 ft | 356 kts | 41° |
| 2026-05-05 21:04 | 32.64001 | -97.33075 | 13518 ft | 355 kts | 41° |
| 2026-05-05 21:04 | 32.65772 | -97.31042 | 13193 ft | 354 kts | 41° |
| 2026-05-05 21:05 | 32.67535 | -97.29017 | 12931 ft | 349 kts | 41° |
| 2026-05-05 21:05 | 32.69259 | -97.27034 | 12793 ft | 342 kts | 41° |
| 2026-05-05 21:05 | 32.70956 | -97.25083 | 12614 ft | 337 kts | 41° |
| 2026-05-05 21:05 | 32.72623 | -97.23166 | 12460 ft | 330 kts | 41° |
| 2026-05-05 21:06 | 32.74253 | -97.21290 | 12314 ft | 324 kts | 41° |
| 2026-05-05 21:06 | 32.75855 | -97.19446 | 12168 ft | 317 kts | 40° |
| 2026-05-05 21:06 | 32.77473 | -97.17718 | 12010 ft | 307 kts | 27° |
| 2026-05-05 21:06 | 32.79378 | -97.16812 | 11818 ft | 290 kts | 3° |
| 2026-05-05 21:07 | 32.81350 | -97.16609 | 11508 ft | 282 kts | 353° |
| 2026-05-05 21:07 | 32.83308 | -97.16599 | 11223 ft | 281 kts | 352° |
| 2026-05-05 21:07 | 32.85267 | -97.16611 | 10923 ft | 282 kts | 352° |
| 2026-05-05 21:07 | 32.87234 | -97.16616 | 10646 ft | 283 kts | 353° |
| 2026-05-05 21:08 | 32.89207 | -97.16611 | 10352 ft | 284 kts | 353° |
| 2026-05-05 21:08 | 32.91184 | -97.16598 | 10061 ft | 285 kts | 354° |
| 2026-05-05 21:08 | 32.93150 | -97.16579 | 9762 ft | 280 kts | 354° |
| 2026-05-05 21:08 | 32.95079 | -97.16557 | 9459 ft | 274 kts | 354° |
| 2026-05-05 21:09 | 32.96943 | -97.16534 | 9159 ft | 269 kts | 354° |
| 2026-05-05 21:09 | 32.98791 | -97.16512 | 8883 ft | 262 kts | 354° |
| 2026-05-05 21:09 | 33.00591 | -97.16491 | 8614 ft | 256 kts | 354° |
| 2026-05-05 21:09 | 33.02357 | -97.16471 | 8348 ft | 252 kts | 354° |
| 2026-05-05 21:10 | 33.04129 | -97.16452 | 8093 ft | 252 kts | 354° |
| 2026-05-05 21:10 | 33.05903 | -97.16435 | 7720 ft | 258 kts | 354° |
| 2026-05-05 21:10 | 33.07688 | -97.16417 | 7359 ft | 263 kts | 354° |
| 2026-05-05 21:10 | 33.09531 | -97.16398 | 6994 ft | 267 kts | 355° |
| 2026-05-05 21:11 | 33.11405 | -97.16377 | 6626 ft | 271 kts | 355° |
| 2026-05-05 21:11 | 33.13288 | -97.16354 | 6252 ft | 269 kts | 355° |
| 2026-05-05 21:11 | 33.15154 | -97.16331 | 5864 ft | 267 kts | 355° |
| 2026-05-05 21:11 | 33.17000 | -97.16197 | 5453 ft | 269 kts | 10° |
| 2026-05-05 21:12 | 33.18662 | -97.15182 | 5127 ft | 271 kts | 40° |
| 2026-05-05 21:12 | 33.19736 | -97.13359 | 4885 ft | 271 kts | 69° |
| 2026-05-05 21:12 | 33.19996 | -97.11168 | 4636 ft | 268 kts | 97° |
| 2026-05-05 21:12 | 33.19387 | -97.09112 | 4402 ft | 262 kts | 127° |
| 2026-05-05 21:13 | 33.18088 | -97.07659 | 4169 ft | 254 kts | 153° |
| 2026-05-05 21:13 | 33.16453 | -97.06966 | 3928 ft | 248 kts | 175° |
| 2026-05-05 21:13 | 33.14752 | -97.06735 | 3697 ft | 246 kts | 177° |
| 2026-05-05 21:13 | 33.13058 | -97.06529 | 3470 ft | 243 kts | 178° |
| 2026-05-05 21:14 | 33.11399 | -97.06325 | 3236 ft | 236 kts | 179° |
| 2026-05-05 21:14 | 33.09798 | -97.06124 | 3083 ft | 224 kts | 179° |
| 2026-05-05 21:14 | 33.08302 | -97.05931 | 3016 ft | 208 kts | 178° |
| 2026-05-05 21:14 | 33.06903 | -97.05752 | 3016 ft | 201 kts | 178° |
| 2026-05-05 21:15 | 33.05525 | -97.05576 | 3002 ft | 196 kts | 178° |
| 2026-05-05 21:15 | 33.04168 | -97.05439 | 2943 ft | 195 kts | 180° |
| 2026-05-05 21:15 | 33.02823 | -97.05406 | 2702 ft | 192 kts | 184° |
| 2026-05-05 21:15 | 33.01513 | -97.05411 | 2484 ft | 183 kts | 185° |
| 2026-05-05 21:16 | 33.00266 | -97.05418 | 2248 ft | 174 kts | 185° |
| 2026-05-05 21:16 | 32.99101 | -97.05423 | 2064 ft | 160 kts | 186° |
| 2026-05-05 21:16 | 32.97987 | -97.05432 | 1838 ft | 163 kts | 184° |
| 2026-05-05 21:16 | 32.96861 | -97.05436 | 1633 ft | 159 kts | 187° |
| 2026-05-05 21:17 | 32.95753 | -97.05443 | 1457 ft | 157 kts | 187° |
| 2026-05-05 21:17 | 32.94680 | -97.05460 | 1249 ft | 151 kts | 182° |
| 2026-05-05 21:17 | 32.93660 | -97.05445 | 1057 ft | 141 kts | 183° |
| 2026-05-05 21:17 | 32.92680 | -97.05442 | 853 ft | 139 kts | 182° |
| 2026-05-05 21:18 | 32.91676 | -97.05464 | 698 ft | 148 kts | 183° |
| 2026-05-05 21:18 | 32.90667 | -97.05472 | 616 ft | 136 kts | 183° |
| 2026-05-05 21:18 | 32.89870 | -97.05472 | 610 ft | 93 kts | 181° |
| 2026-05-05 21:18 | 32.89371 | -97.05474 | 602 ft | 50 kts | 180° |
| 2026-05-05 21:19 | 32.89155 | -97.05476 | 595 ft | 22 kts | 181° |
| 2026-05-05 21:19 | 32.89003 | -97.05476 | 596 ft | 21 kts | 179° |
| 2026-05-05 21:19 | 32.88861 | -97.05437 | 592 ft | 21 kts | 160° |
| 2026-05-05 21:19 | 32.88734 | -97.05361 | 591 ft | 20 kts | 149° |
| 2026-05-05 21:20 | 32.88671 | -97.05318 | 590 ft | 0 kts | 150° |
| 2026-05-05 21:20 | 32.88669 | -97.05317 | 590 ft | 1 kts | 150° |
| 2026-05-05 21:20 | 32.88659 | -97.05310 | 590 ft | 3 kts | 151° |
| 2026-05-05 21:20 | 32.88634 | -97.05294 | 589 ft | 7 kts | 146° |
| 2026-05-05 21:21 | 32.88613 | -97.05202 | 586 ft | 17 kts | 94° |
| 2026-05-05 21:21 | 32.88607 | -97.05061 | 587 ft | 17 kts | 89° |
| 2026-05-05 21:21 | 32.88608 | -97.04925 | 588 ft | 16 kts | 86° |
| 2026-05-05 21:21 | 32.88683 | -97.04892 | 587 ft | 13 kts | 0° |
| 2026-05-05 21:22 | 32.88760 | -97.04891 | 586 ft | 12 kts | 0° |
| 2026-05-05 21:22 | 32.88782 | -97.04891 | 586 ft | 12 kts | 0° |
| 2026-05-05 21:22 | 32.88867 | -97.04891 | 587 ft | 12 kts | 0° |
| 2026-05-05 21:22 | 32.88954 | -97.04891 | 589 ft | 14 kts | 0° |
| 2026-05-05 21:23 | 32.89072 | -97.04889 | 590 ft | 18 kts | 0° |
| 2026-05-05 21:23 | 32.89196 | -97.04889 | 591 ft | 17 kts | 0° |
| 2026-05-05 21:23 | 32.89315 | -97.04889 | 594 ft | 17 kts | 1° |
| 2026-05-05 21:23 | 32.89430 | -97.04889 | 597 ft | 16 kts | 359° |
| 2026-05-05 21:24 | 32.89541 | -97.04888 | 597 ft | 16 kts | 1° |
| 2026-05-05 21:24 | 32.89647 | -97.04886 | 598 ft | 15 kts | 1° |
| 2026-05-05 21:24 | 32.89749 | -97.04885 | 600 ft | 14 kts | 360° |
| 2026-05-05 21:24 | 32.89847 | -97.04885 | 600 ft | 14 kts | 360° |
| 2026-05-05 21:25 | 32.89940 | -97.04886 | 599 ft | 13 kts | 359° |
| 2026-05-05 21:25 | 32.90030 | -97.04886 | 598 ft | 13 kts | 0° |
| 2026-05-05 21:25 | 32.90117 | -97.04885 | 598 ft | 13 kts | 0° |
| 2026-05-05 21:25 | 32.90206 | -97.04885 | 598 ft | 13 kts | 360° |
| 2026-05-05 21:26 | 32.90294 | -97.04885 | 598 ft | 13 kts | 2° |
| 2026-05-05 21:26 | 32.90330 | -97.04882 | 598 ft | 0 kts | 15° |
| 2026-05-05 21:26 | 32.90336 | -97.04869 | 598 ft | 2 kts | 88° |
| 2026-05-05 21:26 | 32.90335 | -97.04813 | 597 ft | 13 kts | 90° |
| 2026-05-05 21:27 | 32.90334 | -97.04689 | 595 ft | 13 kts | 90° |
| 2026-05-05 21:27 | 32.90343 | -97.04612 | 595 ft | 9 kts | 69° |
| 2026-05-05 21:27 | 32.90358 | -97.04562 | 595 ft | 3 kts | 70° |
| 2026-05-05 21:27 | 32.90361 | -97.04554 | 595 ft | 0 kts | 70° |